Time;durP1;ratioP1;P1;durP2;ratioP2;P2;SDS_P1;SDS_P2;PMS_P1;PMS_P2;Temp;Humidity;BMP_temperature;BMP_pressure;BME280_temperature;BME280_humidity;BME280_pressure;Samples;Min_cycle;Max_cycle;Signal;HPM_P1;HPM_P2
2022/05/01 00:00:26;;;;;;;6.40;5.20;;;;;;;6.19;71.12;96396.06;10346626;28;96845;-64
2022/05/01 00:05:30;;;;;;;8.43;4.85;;;;;;;6.02;71.77;96393.00;10345584;28;100027;-64
2022/05/01 00:10:33;;;;;;;8.13;4.87;;;;;;;5.88;72.42;96393.22;10339040;28;97190;-64
2022/05/01 00:15:57;;;;;;;6.35;4.32;;;;;;;5.85;72.60;96393.44;10359305;28;97367;-64
2022/05/01 00:21:01;;;;;;;5.28;4.13;;;;;;;5.83;72.63;96392.72;10345975;28;97979;-64
2022/05/01 00:26:06;;;;;;;7.32;4.97;;;;;;;5.82;72.48;96385.88;10341303;28;96785;-64
2022/05/01 00:31:09;;;;;;;6.00;4.50;;;;;;;5.81;72.23;96374.69;10342291;28;96735;-64
2022/05/01 00:36:28;;;;;;;5.28;4.47;;;;;;;5.86;71.82;96379.50;10344003;28;97058;-64
2022/05/01 00:41:32;;;;;;;4.25;3.85;;;;;;;5.84;71.40;96377.06;10343477;28;97171;-64
2022/05/01 00:46:36;;;;;;;7.47;4.97;;;;;;;5.88;71.55;96372.47;10340361;28;99835;-65
2022/05/01 00:51:44;;;;;;;5.28;4.15;;;;;;;5.94;71.24;96364.22;10343756;28;96973;-64
2022/05/01 00:56:50;;;;;;;7.43;4.78;;;;;;;5.89;71.33;96368.91;10343822;28;97366;-64
2022/05/01 01:01:53;;;;;;;5.00;4.10;;;;;;;5.82;70.56;96357.38;10339585;28;96938;-65
2022/05/01 01:06:57;;;;;;;6.30;5.00;;;;;;;5.82;71.03;96362.56;10355243;28;97025;-64
2022/05/01 01:17:20;;;;;;;5.68;4.18;;;;;;;5.63;71.72;96358.72;10342469;28;97143;-64
2022/05/01 01:22:24;;;;;;;5.30;4.15;;;;;;;5.63;71.77;96353.53;10337968;28;96818;-65
2022/05/01 01:27:27;;;;;;;7.43;4.00;;;;;;;5.55;71.53;96355.91;10342367;28;97010;-64
2022/05/01 01:32:30;;;;;;;5.65;4.45;;;;;;;5.51;71.31;96360.50;10342508;28;96888;-64
2022/05/01 01:37:36;;;;;;;6.10;4.75;;;;;;;5.32;72.20;96361.00;10338340;28;96975;-64
2022/05/01 01:42:40;;;;;;;6.00;4.97;;;;;;;5.28;72.40;96353.56;10341903;28;97053;-64
2022/05/01 01:47:44;;;;;;;5.00;4.15;;;;;;;5.26;72.01;96355.44;10342299;28;96959;-64
2022/05/01 01:52:49;;;;;;;5.35;4.70;;;;;;;5.23;71.92;96351.31;10335856;28;96803;-64
2022/05/01 01:57:52;;;;;;;5.82;4.60;;;;;;;5.11;72.53;96350.47;10353986;28;96947;-64
2022/05/01 02:02:58;;;;;;;7.43;5.10;;;;;;;5.03;73.53;96354.50;10364666;28;97567;-64
2022/05/01 02:08:05;;;;;;;6.07;4.93;;;;;;;4.92;73.29;96350.97;10337650;28;96783;-64
2022/05/01 02:13:09;;;;;;;8.50;5.80;;;;;;;4.79;73.72;96357.13;10339168;28;96928;-64
2022/05/01 02:18:12;;;;;;;7.18;5.95;;;;;;;4.76;73.90;96353.78;10343083;28;97010;-65
2022/05/01 02:23:17;;;;;;;6.50;4.68;;;;;;;4.79;74.02;96350.16;10339409;28;97001;-65
2022/05/01 02:28:20;;;;;;;4.57;3.73;;;;;;;4.79;72.92;96346.78;10338444;28;96721;-64
2022/05/01 02:33:22;;;;;;;5.88;4.95;;;;;;;4.73;73.23;96348.84;10341157;28;96837;-64
2022/05/01 02:38:26;;;;;;;6.38;4.85;;;;;;;4.73;73.41;96345.41;10340680;28;96731;-64
2022/05/01 02:43:29;;;;;;;4.68;4.00;;;;;;;4.71;73.30;96340.34;10351720;28;98038;-65
2022/05/01 02:48:33;;;;;;;5.93;4.88;;;;;;;4.62;73.71;96329.84;10370214;28;96894;-64
2022/05/01 02:53:38;;;;;;;7.95;5.47;;;;;;;4.41;74.58;96338.19;10359231;28;96927;-64
2022/05/01 02:58:40;;;;;;;7.13;5.25;;;;;;;4.34;74.50;96342.13;10353345;28;96753;-64
2022/05/01 03:03:43;;;;;;;6.60;5.25;;;;;;;4.32;74.54;96338.81;10347153;28;97989;-64
2022/05/01 03:08:48;;;;;;;7.20;5.60;;;;;;;4.29;75.00;96337.25;10346446;28;96725;-64
2022/05/01 03:13:50;;;;;;;8.98;4.65;;;;;;;4.29;74.54;96339.84;10342725;28;96874;-64
2022/05/01 03:24:18;;;;;;;6.38;5.00;;;;;;;4.30;74.10;96335.50;10346848;28;97004;-64
2022/05/01 03:29:21;;;;;;;5.05;4.47;;;;;;;4.23;74.44;96335.13;10345781;28;99040;-64
2022/05/01 03:34:26;;;;;;;8.20;5.10;;;;;;;4.16;74.50;96328.69;10344505;28;97196;-64
2022/05/01 03:39:30;;;;;;;6.53;4.50;;;;;;;4.12;74.23;96319.50;10346532;28;99184;-64
2022/05/01 03:44:34;;;;;;;5.78;3.70;;;;;;;4.11;73.85;96325.63;10345493;28;97848;-64
2022/05/01 03:49:36;;;;;;;5.10;4.60;;;;;;;4.09;74.00;96328.31;10362097;28;96870;-64
2022/05/01 03:54:41;;;;;;;5.22;4.15;;;;;;;4.05;73.81;96334.63;10344921;28;97165;-64
2022/05/01 03:59:46;;;;;;;5.03;3.72;;;;;;;4.03;74.15;96323.56;10349388;28;96831;-64
2022/05/01 04:04:50;;;;;;;6.40;4.72;;;;;;;3.99;74.17;96327.28;10345648;28;96875;-64
2022/05/01 04:09:54;;;;;;;5.82;4.53;;;;;;;3.91;75.04;96334.72;10345384;28;96842;-64
2022/05/01 04:14:59;;;;;;;6.88;5.00;;;;;;;3.76;75.04;96332.25;10353159;28;96906;-66
2022/05/01 04:20:02;;;;;;;76.85;46.92;;;;;;;3.88;75.60;96334.94;10347194;28;96869;-64
2022/05/01 04:25:14;;;;;;;7.53;5.35;;;;;;;3.93;75.69;96328.50;10348599;28;96865;-64
2022/05/01 04:30:17;;;;;;;6.72;5.35;;;;;;;3.95;75.49;96336.16;10349493;28;97118;-64
2022/05/01 04:35:28;;;;;;;5.82;5.13;;;;;;;4.08;75.06;96333.59;10358439;28;96883;-65
2022/05/01 04:40:35;;;;;;;8.30;6.25;;;;;;;4.25;75.45;96335.03;10367850;28;99731;-63
2022/05/01 04:45:41;;;;;;;6.18;4.90;;;;;;;4.29;74.77;96339.03;10367114;28;96902;-66
2022/05/01 04:50:44;;;;;;;4.75;3.70;;;;;;;4.28;74.24;96334.78;10351970;28;97038;-65
2022/05/01 04:55:49;;;;;;;7.78;5.28;;;;;;;4.32;74.01;96338.81;10369046;28;96748;-64
2022/05/01 05:00:52;;;;;;;;;;;;;;;4.41;73.87;96343.34;10355171;28;97115;-64
2022/05/01 05:05:55;;;;;;;112.10;76.18;;;;;;;4.50;73.66;96347.06;10348990;28;96891;-64
2022/05/01 05:10:59;;;;;;;4.88;4.22;;;;;;;4.67;74.23;96345.88;10349668;28;96956;-66
2022/05/01 05:16:02;;;;;;;5.60;4.07;;;;;;;4.93;73.74;96349.19;10352489;28;96822;-66
2022/05/01 05:21:05;;;;;;;5.00;3.90;;;;;;;5.14;73.73;96352.00;10368895;28;96850;-66
2022/05/01 05:26:09;;;;;;;5.72;4.40;;;;;;;5.34;73.96;96361.72;10365364;28;96898;-65
2022/05/01 05:31:12;;;;;;;4.60;4.07;;;;;;;5.59;73.62;96364.28;10354156;28;96872;-65
2022/05/01 05:36:15;;;;;;;5.38;4.50;;;;;;;5.83;74.00;96364.22;10356330;28;96992;-65
2022/05/01 05:41:19;;;;;;;5.10;3.58;;;;;;;6.04;72.92;96365.16;10362004;28;96905;-65
2022/05/01 05:46:22;;;;;;;5.43;3.70;;;;;;;6.30;73.07;96367.53;10365273;28;97022;-65
2022/05/01 05:51:26;;;;;;;5.13;4.13;;;;;;;6.56;72.39;96367.31;10362928;28;97130;-66
2022/05/01 05:56:30;;;;;;;4.80;3.72;;;;;;;6.80;71.82;96362.78;10351283;28;96912;-66
2022/05/01 06:01:33;;;;;;;5.05;3.90;;;;;;;7.08;71.55;96373.59;10336905;28;96943;-66
2022/05/01 06:06:36;;;;;;;5.03;4.32;;;;;;;7.35;72.05;96375.75;10340138;28;97011;-66
2022/05/01 06:11:40;;;;;;;5.78;4.90;;;;;;;7.62;71.69;96371.84;10350095;28;96937;-65
2022/05/01 06:16:43;;;;;;;7.80;5.20;;;;;;;7.94;71.64;96376.16;10342522;28;96690;-66
2022/05/01 06:21:46;;;;;;;8.70;6.63;;;;;;;8.24;71.73;96372.75;10348101;28;96763;-65
2022/05/01 06:26:50;;;;;;;9.88;7.50;;;;;;;8.49;71.95;96375.88;10368602;28;97096;-65
2022/05/01 06:31:54;;;;;;;9.93;6.97;;;;;;;8.60;71.94;96367.94;10357176;28;96851;-67
2022/05/01 06:36:57;;;;;;;10.57;7.50;;;;;;;8.59;71.36;96361.09;10369589;28;97859;-66
2022/05/01 06:42:01;;;;;;;10.18;7.80;;;;;;;8.52;71.45;96357.38;10365784;28;97072;-65
2022/05/01 06:47:05;;;;;;;10.67;7.77;;;;;;;8.42;71.09;96357.34;10373145;28;96855;-66
2022/05/01 06:52:08;;;;;;;10.13;8.30;;;;;;;8.42;71.18;96348.72;10381664;28;96752;-65
2022/05/01 06:57:13;;;;;;;11.95;8.48;;;;;;;8.44;71.60;96347.63;10353880;28;97000;-66
2022/05/01 07:02:16;;;;;;;10.10;8.30;;;;;;;8.46;71.84;96350.91;10375031;28;97384;-66
2022/05/01 07:07:20;;;;;;;10.70;9.00;;;;;;;8.54;71.87;96358.06;10358241;28;96999;-65
2022/05/01 07:12:24;;;;;;;9.90;8.13;;;;;;;8.68;71.77;96357.69;10369106;28;96730;-65
2022/05/01 07:17:27;;;;;;;9.75;7.85;;;;;;;8.82;71.48;96351.28;10355507;28;96671;-65
2022/05/01 07:22:30;;;;;;;13.07;10.30;;;;;;;8.98;71.70;96360.38;10341635;28;97046;-66
2022/05/01 07:27:34;;;;;;;14.43;9.88;;;;;;;9.18;71.15;96353.41;10371754;28;96853;-66
2022/05/01 07:32:37;;;;;;;13.77;10.13;;;;;;;9.48;70.73;96342.03;10354238;28;96879;-66
2022/05/01 07:37:40;;;;;;;12.43;10.00;;;;;;;9.79;70.10;96339.25;10342170;28;96781;-65
2022/05/01 07:42:44;;;;;;;12.40;9.63;;;;;;;10.11;69.67;96338.88;10355778;28;96916;-66
2022/05/01 07:47:47;;;;;;;12.83;9.60;;;;;;;10.14;69.03;96328.16;10344720;28;96794;-66
2022/05/01 07:52:50;;;;;;;14.25;10.45;;;;;;;10.24;68.16;96334.19;10341346;28;96991;-66
2022/05/01 07:57:55;;;;;;;10.57;9.10;;;;;;;10.31;68.09;96328.41;10357290;28;96936;-66
2022/05/01 08:08:18;;;;;;;10.63;9.25;;;;;;;10.60;67.04;96330.88;10365799;28;96943;-66
2022/05/01 08:13:22;;;;;;;12.82;9.25;;;;;;;10.64;67.05;96326.19;10356934;28;96809;-65
2022/05/01 08:23:46;;;;;;;12.10;9.00;;;;;;;11.17;66.31;96330.63;10345513;28;97094;-65
2022/05/01 08:28:54;;;;;;;12.27;9.55;;;;;;;11.36;65.69;96329.69;10355377;28;96958;-66
2022/05/01 08:33:57;;;;;;;10.75;9.50;;;;;;;11.60;65.51;96328.25;10362127;28;96902;-66
2022/05/01 08:39:00;;;;;;;10.73;9.52;;;;;;;11.87;64.68;96322.09;10345453;28;96809;-66
2022/05/01 08:44:05;;;;;;;11.57;9.25;;;;;;;11.99;64.11;96326.09;10353155;28;96985;-66
2022/05/01 08:49:10;;;;;;;;;;;;;;;12.08;64.54;96321.72;10343527;28;96762;-65
2022/05/01 08:54:14;;;;;;;12.68;9.57;;;;;;;12.25;63.42;96314.78;10343020;28;97072;-67
2022/05/01 08:59:19;;;;;;;11.73;8.97;;;;;;;12.51;63.22;96325.22;10346964;28;96944;-65
2022/05/01 09:04:25;;;;;;;12.60;9.50;;;;;;;12.80;62.41;96316.94;10342841;28;96791;-66
2022/05/01 09:09:27;;;;;;;10.43;8.82;;;;;;;12.98;62.23;96310.81;10361041;28;97021;-66
2022/05/01 09:14:32;;;;;;;11.93;9.38;;;;;;;13.35;61.41;96314.78;10369226;28;98137;-66
2022/05/01 09:19:36;;;;;;;11.53;9.33;;;;;;;13.56;60.78;96309.84;10369369;28;96963;-65
2022/05/01 09:24:39;;;;;;;11.55;10.05;;;;;;;13.32;61.09;96302.78;10346313;28;97786;-65
2022/05/01 09:29:44;;;;;;;12.32;10.45;;;;;;;13.40;60.93;96309.88;10365735;28;97976;-66
2022/05/01 09:34:51;;;;;;;11.52;9.48;;;;;;;13.46;60.83;96309.19;10353102;28;96773;-66
2022/05/01 09:39:54;;;;;;;9.95;8.27;;;;;;;13.31;61.40;96297.72;10347718;28;96880;-66
2022/05/01 09:45:07;;;;;;;10.57;8.45;;;;;;;13.17;60.87;96304.41;10348081;28;97085;-65
2022/05/01 09:50:11;;;;;;;10.27;9.18;;;;;;;13.16;61.01;96308.03;10354714;28;96976;-66
2022/05/01 09:55:13;;;;;;;9.57;8.48;;;;;;;13.31;60.33;96305.56;10365313;28;96881;-66
2022/05/01 10:00:36;;;;;;;9.18;7.20;;;;;;;13.55;59.66;96291.63;10365125;28;99681;-66
2022/05/01 10:05:41;;;;;;;8.50;7.40;;;;;;;13.69;58.95;96298.88;10364364;28;98144;-66
2022/05/01 10:10:45;;;;;;;10.55;7.40;;;;;;;13.88;58.46;96287.19;10345551;28;98730;-66
2022/05/01 10:15:51;;;;;;;9.57;7.30;;;;;;;14.05;57.56;96287.16;10357841;28;97638;-66
2022/05/01 10:20:54;;;;;;;9.00;7.47;;;;;;;13.99;57.06;96278.94;10342202;28;98211;-65
2022/05/01 10:26:10;;;;;;;9.32;6.43;;;;;;;14.17;57.13;96278.72;10350395;28;99701;-66
2022/05/01 10:38:03;;;;;;;9.73;7.15;;;;;;;14.43;56.64;96269.00;10343847;28;97123;-65
2022/05/01 10:43:27;;;;;;;6.80;5.90;;;;;;;14.63;56.48;96269.41;10363455;28;96915;-66
2022/05/01 10:48:36;;;;;;;7.53;6.47;;;;;;;14.85;55.73;96265.16;10348866;28;97093;-66
2022/05/01 10:53:40;;;;;;;7.22;5.65;;;;;;;14.98;54.87;96257.50;10360244;28;97066;-65
2022/05/01 10:58:43;;;;;;;6.73;5.60;;;;;;;15.05;55.59;96257.63;10350393;28;97174;-65
2022/05/01 11:03:54;;;;;;;7.53;6.00;;;;;;;15.10;55.50;96250.84;10361103;28;96817;-65
2022/05/01 11:08:58;;;;;;;7.25;5.75;;;;;;;15.47;54.27;96258.94;10346792;28;96973;-65
2022/05/01 11:14:02;;;;;;;6.60;5.77;;;;;;;15.51;54.51;96241.78;10368303;28;96943;-66
2022/05/01 11:19:06;;;;;;;6.40;5.80;;;;;;;16.01;54.26;96227.16;10364015;28;96865;-66
2022/05/01 11:24:13;;;;;;;6.40;4.88;;;;;;;16.44;53.01;96222.03;10360775;28;97926;-65
2022/05/01 11:29:17;;;;;;;6.97;4.47;;;;;;;16.53;52.04;96221.94;10366210;28;96984;-65
2022/05/01 11:34:39;;;;;;;5.37;4.13;;;;;;;16.60;50.34;96209.63;10369126;28;98074;-66
2022/05/01 11:40:20;;;;;;;5.65;4.15;;;;;;;16.88;50.27;96199.19;10365084;28;97878;-65
2022/05/01 11:45:32;;;;;;;4.95;3.50;;;;;;;17.07;49.27;96203.03;10351066;28;96882;-67
2022/05/01 11:50:39;;;;;;;4.03;3.42;;;;;;;17.07;48.41;96194.28;10366678;27;97825;-66
2022/05/01 12:06:32;;;;;;;3.78;2.70;;;;;;;15.67;48.25;96180.31;10365868;28;97000;-65
2022/05/01 12:11:35;;;;;;;4.60;3.00;;;;;;;15.94;46.53;96175.38;10365322;28;97181;-65
2022/05/01 12:16:38;;;;;;;3.20;2.38;;;;;;;16.60;46.12;96168.25;10352390;28;97283;-65
2022/05/01 12:21:43;;;;;;;4.00;2.83;;;;;;;17.16;44.69;96172.03;10343864;28;96749;-65
2022/05/01 12:26:52;;;;;;;3.67;3.28;;;;;;;17.52;44.33;96157.88;10345873;28;96742;-66
2022/05/01 12:31:59;;;;;;;4.00;3.60;;;;;;;17.87;43.85;96163.19;10368632;28;97156;-63
2022/05/01 12:37:05;;;;;;;5.65;3.00;;;;;;;17.89;44.03;96161.16;10343948;28;96813;-64
2022/05/01 12:47:33;;;;;;;4.55;2.72;;;;;;;17.91;43.83;96141.47;10365417;28;96893;-65
2022/05/01 12:52:39;;;;;;;4.28;3.17;;;;;;;17.88;44.31;96138.41;10361839;28;97162;-65
2022/05/01 12:57:43;;;;;;;3.78;2.55;;;;;;;17.80;44.13;96136.69;10344694;28;99432;-66
2022/05/01 13:02:47;;;;;;;3.58;2.90;;;;;;;18.12;43.76;96129.97;10343291;28;96783;-63
2022/05/01 13:07:54;;;;;;;3.50;2.88;;;;;;;18.33;42.84;96120.28;10354992;28;96819;-65
2022/05/01 13:13:00;;;;;;;3.40;2.70;;;;;;;18.37;43.42;96120.69;10354424;28;97488;-66
2022/05/01 13:18:03;;;;;;;4.35;3.42;;;;;;;18.58;42.76;96111.78;10358187;28;98430;-65
2022/05/01 13:23:07;;;;;;;3.30;3.00;;;;;;;18.47;42.23;96114.00;10367916;28;96796;-65
2022/05/01 13:28:09;;;;;;;3.60;2.53;;;;;;;18.51;41.94;96101.19;10356217;28;96725;-62
2022/05/01 13:33:12;;;;;;;3.85;3.00;;;;;;;18.61;41.19;96096.31;10348908;28;96908;-65
2022/05/01 13:38:17;;;;;;;5.10;3.42;;;;;;;18.87;40.59;96092.91;10366080;28;97182;-67
2022/05/01 13:48:41;;;;;;;16.73;11.35;;;;;;;18.30;42.71;96083.66;10355568;28;97220;-65
2022/05/01 13:53:45;;;;;;;2.92;2.25;;;;;;;17.98;41.27;96075.44;10357501;28;97055;-65
2022/05/01 13:58:48;;;;;;;4.38;3.35;;;;;;;18.44;41.43;96068.63;10352786;28;97959;-66
2022/05/01 14:03:51;;;;;;;3.50;2.60;;;;;;;18.77;40.55;96063.34;10355967;28;99856;-66
2022/05/01 14:08:56;;;;;;;4.10;2.80;;;;;;;18.60;39.53;96052.38;10354501;28;96944;-65
2022/05/01 14:13:58;;;;;;;3.35;2.40;;;;;;;18.37;40.64;96044.81;10358309;28;97121;-66
2022/05/01 14:19:02;;;;;;;3.28;2.10;;;;;;;19.10;40.30;96041.38;10369319;28;96851;-65
2022/05/01 14:24:09;;;;;;;4.15;1.90;;;;;;;19.68;39.06;96027.38;10359173;28;96855;-66
2022/05/01 14:29:12;;;;;;;3.13;1.70;;;;;;;19.85;39.11;96017.13;10358515;28;96886;-66
2022/05/01 14:34:23;;;;;;;2.20;2.00;;;;;;;19.80;37.34;96015.09;10369427;28;96887;-66
2022/05/01 14:39:38;;;;;;;3.67;2.40;;;;;;;19.48;37.91;96016.03;10347596;28;96823;-64
2022/05/01 14:44:48;;;;;;;2.47;2.13;;;;;;;19.70;37.86;96020.03;10368517;28;96846;-67
2022/05/01 14:49:51;;;;;;;2.63;1.88;;;;;;;20.15;37.73;96005.97;10371664;28;96906;-66
2022/05/01 14:54:57;;;;;;;4.43;2.05;;;;;;;20.70;37.49;96000.88;10351278;28;96824;-66
2022/05/01 15:10:43;;;;;;;2.00;1.70;;;;;;;21.13;36.90;95999.25;10215155;28;97025;-64
2022/05/01 15:15:57;;;;;;;2.78;2.03;;;;;;;20.84;37.17;95990.97;10231055;28;97010;-66
2022/05/01 15:21:06;;;;;;;2.72;2.35;;;;;;;21.28;36.67;95994.41;10238310;28;97003;-66
2022/05/01 15:26:13;;;;;;;2.83;2.05;;;;;;;22.28;34.43;95991.53;10235235;28;96838;-68
2022/05/01 15:31:17;;;;;;;2.88;1.92;;;;;;;22.31;34.67;95988.41;10229063;28;97904;-66
2022/05/01 15:36:23;;;;;;;2.28;1.77;;;;;;;22.48;34.41;95986.75;10234400;28;97254;-67
2022/05/01 15:41:37;;;;;;;2.65;1.75;;;;;;;22.10;34.59;95990.56;10221641;28;96975;-66
2022/05/01 15:46:44;;;;;;;2.67;1.70;;;;;;;20.60;36.29;95984.63;10280642;28;97177;-67
2022/05/01 15:57:14;;;;;;;2.83;1.77;;;;;;;18.88;38.52;95983.38;10365961;28;96861;-67
2022/05/01 16:02:20;;;;;;;3.03;1.83;;;;;;;18.43;39.71;95985.84;10351966;28;97035;-66
2022/05/01 16:07:30;;;;;;;2.10;1.90;;;;;;;18.68;38.99;95986.00;10351935;28;96836;-66
2022/05/01 16:12:39;;;;;;;2.78;2.03;;;;;;;19.20;38.13;95993.31;10358701;28;99697;-66
2022/05/01 16:17:55;;;;;;;3.50;2.28;;;;;;;20.70;36.83;95987.59;10361419;28;99557;-66
2022/05/01 16:23:04;;;;;;;2.20;1.80;;;;;;;21.99;34.97;95983.34;10355371;28;97157;-66
2022/05/01 16:28:15;;;;;;;3.92;2.47;;;;;;;22.73;34.03;95975.06;10372641;28;96778;-66
2022/05/01 16:33:26;;;;;;;3.55;2.10;;;;;;;22.93;34.08;95972.88;10345615;28;96976;-68
2022/05/01 16:38:30;;;;;;;2.85;2.13;;;;;;;23.38;33.37;95968.81;10345375;28;96941;-68
2022/05/01 16:43:36;;;;;;;2.83;2.00;;;;;;;22.99;33.60;95968.47;10338831;28;96867;-65
2022/05/01 16:48:41;;;;;;;2.30;1.90;;;;;;;23.25;32.95;95972.50;10358923;28;96962;-67
2022/05/01 16:53:46;;;;;;;2.22;1.98;;;;;;;23.83;32.35;95967.25;10344454;28;96751;-65
2022/05/01 16:58:52;;;;;;;3.22;2.05;;;;;;;23.29;33.55;95960.38;10368472;28;96836;-65
2022/05/01 17:03:56;;;;;;;3.05;2.20;;;;;;;23.72;31.66;95963.59;10355531;28;101291;-65
2022/05/01 17:09:06;;;;;;;2.95;2.00;;;;;;;23.70;31.67;95971.81;10352025;28;97007;-66
2022/05/01 17:14:43;;;;;;;2.25;1.85;;;;;;;22.31;32.08;95972.44;10367002;28;96677;-66
2022/05/01 17:19:51;;;;;;;5.00;1.75;;;;;;;21.46;32.91;95979.50;10362758;28;98020;-66
2022/05/01 17:25:10;;;;;;;2.97;2.13;;;;;;;20.49;34.30;95980.00;10371036;28;97100;-66
2022/05/01 17:30:16;;;;;;;4.65;2.33;;;;;;;19.67;36.12;95983.34;10365007;28;97972;-66
2022/05/01 17:35:21;;;;;;;5.45;2.08;;;;;;;18.99;37.52;95981.13;10366612;28;96949;-66
2022/05/01 17:40:25;;;;;;;3.65;2.50;;;;;;;18.12;38.44;95987.22;10371699;28;96740;-66
2022/05/01 17:45:32;;;;;;;2.28;1.77;;;;;;;17.87;38.38;95978.22;10360191;28;96771;-66
2022/05/01 17:50:36;;;;;;;3.10;1.80;;;;;;;17.71;38.56;95982.00;10342350;28;96896;-66
2022/05/01 17:55:40;;;;;;;4.18;2.53;;;;;;;17.58;38.75;95985.44;10339091;28;96928;-66
2022/05/01 18:00:55;;;;;;;3.92;2.40;;;;;;;17.09;40.75;95978.50;10341166;28;97095;-66
2022/05/01 18:11:35;;;;;;;6.68;2.63;;;;;;;16.71;41.51;95984.13;10344404;28;97096;-66
2022/05/01 18:16:54;;;;;;;3.90;2.88;;;;;;;16.35;42.06;95990.34;10351588;28;96793;-66
2022/05/01 18:22:00;;;;;;;4.65;2.60;;;;;;;15.99;43.42;95991.22;10349231;28;97972;-66
2022/05/01 18:27:09;;;;;;;7.55;5.68;;;;;;;15.65;44.03;95995.31;10361594;28;96791;-64
2022/05/01 18:32:23;;;;;;;4.82;2.78;;;;;;;15.48;44.63;95995.50;10362135;28;97842;-64
2022/05/01 18:37:32;;;;;;;4.03;2.43;;;;;;;15.30;45.28;96001.19;10353297;28;96766;-65
2022/05/01 18:42:36;;;;;;;4.40;2.58;;;;;;;15.21;45.45;95998.81;10350455;28;96789;-65
2022/05/01 18:47:43;;;;;;;7.95;5.38;;;;;;;15.21;44.99;95998.81;10352232;28;96957;-66
2022/05/01 18:52:48;;;;;;;5.18;2.63;;;;;;;15.24;45.21;96004.53;10355193;28;96808;-65
2022/05/01 18:57:51;;;;;;;6.82;4.05;;;;;;;15.09;46.07;95999.25;10374291;28;97929;-64
2022/05/01 19:02:56;;;;;;;9.63;7.55;;;;;;;15.06;46.13;96011.97;10367597;28;96872;-64
2022/05/01 19:08:08;;;;;;;3.97;2.78;;;;;;;14.90;46.14;96005.88;10362376;28;96997;-66
2022/05/01 19:13:27;;;;;;;4.57;3.00;;;;;;;14.65;46.98;96007.94;10368278;28;96847;-66
2022/05/01 19:18:44;;;;;;;3.88;2.75;;;;;;;14.40;47.20;96017.03;10347776;28;96841;-66
2022/05/01 19:29:39;;;;;;;3.08;2.78;;;;;;;14.10;47.66;96030.03;10354264;28;96840;-66
2022/05/01 19:34:51;;;;;;;5.95;3.10;;;;;;;13.90;48.61;96027.88;10343359;28;96865;-66
2022/05/01 19:40:04;;;;;;;3.58;2.90;;;;;;;13.76;48.56;96032.06;10345640;28;98620;-65
2022/05/01 19:45:09;;;;;;;3.78;2.92;;;;;;;13.58;48.94;96034.91;10345906;28;97235;-66
2022/05/01 19:55:39;;;;;;;5.57;3.10;;;;;;;13.27;49.58;96039.31;10341418;28;96948;-66
2022/05/01 20:00:47;;;;;;;5.07;3.20;;;;;;;13.10;50.50;96042.00;10357700;28;97192;-66
2022/05/01 20:05:54;;;;;;;4.97;3.20;;;;;;;12.96;50.76;96051.38;10348753;28;96776;-66
2022/05/01 20:10:57;;;;;;;3.85;2.88;;;;;;;12.79;51.07;96049.75;10341324;28;99779;-66
2022/05/01 20:16:05;;;;;;;5.03;2.90;;;;;;;12.66;51.37;96051.03;10361404;28;97332;-66
2022/05/01 20:21:14;;;;;;;3.97;3.25;;;;;;;12.58;51.57;96052.84;10347577;28;96769;-65
2022/05/01 20:26:24;;;;;;;4.80;3.30;;;;;;;12.49;52.05;96045.00;10359938;28;97181;-65
2022/05/01 20:31:38;;;;;;;4.70;3.20;;;;;;;12.49;51.78;96054.66;10356449;28;96992;-67
2022/05/01 20:36:46;;;;;;;192.20;127.07;;;;;;;12.46;51.67;96055.81;10364004;28;97327;-65
2022/05/01 20:41:58;;;;;;;6.07;3.70;;;;;;;12.42;51.75;96044.03;10355581;28;97113;-65
2022/05/01 20:47:08;;;;;;;4.95;3.03;;;;;;;12.38;51.91;96047.13;10362609;28;98095;-65
2022/05/01 20:52:19;;;;;;;4.55;3.10;;;;;;;12.32;51.51;96053.84;10294840;28;96988;-65
2022/05/01 20:57:25;;;;;;;5.15;3.63;;;;;;;12.28;51.37;96048.13;10295487;28;97954;-66
2022/05/01 21:02:34;;;;;;;5.45;3.40;;;;;;;12.28;51.45;96042.03;10292173;28;96774;-66
2022/05/01 21:07:40;;;;;;;5.03;3.30;;;;;;;12.20;51.33;96044.69;10289743;28;96960;-65
2022/05/01 21:12:45;;;;;;;8.30;3.90;;;;;;;12.10;51.45;96044.81;10285482;28;98058;-66
2022/05/01 21:17:48;;;;;;;5.72;3.67;;;;;;;12.00;51.52;96044.97;10285191;28;96891;-66
2022/05/01 21:22:52;;;;;;;5.15;3.00;;;;;;;11.85;51.49;96041.31;10289583;28;100856;-66
2022/05/01 21:27:55;;;;;;;5.33;3.60;;;;;;;11.70;51.85;96035.91;10284281;28;98826;-66
2022/05/01 21:32:59;;;;;;;4.55;3.67;;;;;;;11.55;52.50;96046.16;10288397;28;96958;-66
2022/05/01 21:38:03;;;;;;;5.70;3.90;;;;;;;11.42;52.96;96040.56;10295888;28;97254;-66
2022/05/01 21:43:06;;;;;;;5.18;3.90;;;;;;;11.24;53.14;96027.53;10293975;28;99761;-66
2022/05/01 21:48:10;;;;;;;5.45;3.92;;;;;;;11.06;53.96;96030.25;10304372;28;96776;-65
2022/05/01 21:53:14;;;;;;;10.20;4.28;;;;;;;10.89;54.75;96027.53;10339853;28;96879;-66
2022/05/01 21:58:17;;;;;;;6.05;4.55;;;;;;;10.59;55.48;96032.25;10338632;28;97209;-66
2022/05/01 22:03:22;;;;;;;5.28;4.25;;;;;;;10.32;56.81;96033.22;10372427;28;97055;-66
2022/05/01 22:08:27;;;;;;;8.65;5.20;;;;;;;10.15;57.08;96032.25;10357828;28;96881;-65
2022/05/01 22:13:30;;;;;;;5.07;3.70;;;;;;;9.91;57.28;96024.19;10344120;28;96810;-66
2022/05/01 22:18:33;;;;;;;5.10;3.75;;;;;;;9.86;57.61;96022.84;10350766;28;97916;-66
2022/05/01 22:23:38;;;;;;;6.68;4.15;;;;;;;9.91;57.57;96019.78;10362684;28;96849;-65
2022/05/01 22:28:41;;;;;;;5.60;4.10;;;;;;;9.88;57.81;96017.47;10353798;28;97177;-66
2022/05/01 22:33:44;;;;;;;4.75;3.38;;;;;;;9.78;57.05;96016.72;10350375;28;96783;-65
2022/05/01 22:38:48;;;;;;;5.75;3.70;;;;;;;9.75;56.33;96020.47;10342829;28;97030;-65
2022/05/01 22:43:51;;;;;;;5.10;3.40;;;;;;;9.74;55.95;96026.63;10358292;28;101123;-65
2022/05/01 22:48:54;;;;;;;5.63;4.13;;;;;;;9.77;55.51;96025.53;10356217;28;96839;-65
2022/05/01 22:53:58;;;;;;;6.32;3.80;;;;;;;9.70;56.82;96021.84;10344596;28;96962;-66
2022/05/01 22:59:01;;;;;;;7.97;3.95;;;;;;;9.56;57.23;96021.41;10357824;28;96993;-66
2022/05/01 23:04:04;;;;;;;5.60;3.53;;;;;;;9.48;57.04;96024.72;10349704;28;97210;-65
2022/05/01 23:09:09;;;;;;;5.60;3.60;;;;;;;9.40;57.61;96022.03;10349711;28;97545;-65
2022/05/01 23:14:11;;;;;;;4.83;3.70;;;;;;;9.31;57.40;96012.44;10359665;28;99840;-65
2022/05/01 23:19:14;;;;;;;5.32;3.58;;;;;;;9.28;57.69;96008.34;10359419;28;96830;-65
2022/05/01 23:24:19;;;;;;;5.95;3.83;;;;;;;9.17;58.97;96005.13;10347534;28;99774;-65
2022/05/01 23:29:22;;;;;;;5.00;3.85;;;;;;;9.07;58.91;96008.59;10361221;28;97145;-66
2022/05/01 23:34:24;;;;;;;4.25;3.80;;;;;;;8.96;58.83;95998.34;10347994;28;96702;-65
2022/05/01 23:39:29;;;;;;;6.10;3.75;;;;;;;8.89;58.74;95995.50;10350619;28;96998;-65
2022/05/01 23:44:32;;;;;;;6.10;3.72;;;;;;;8.78;58.78;95995.69;10364414;28;97062;-66
2022/05/01 23:49:36;;;;;;;4.53;3.50;;;;;;;8.72;58.46;95991.03;10341937;28;101059;-66
2022/05/01 23:54:40;;;;;;;5.05;3.97;;;;;;;8.59;59.17;95985.34;10351604;28;98108;-65
2022/05/01 23:59:43;;;;;;;4.82;3.50;;;;;;;8.50;59.50;95981.78;10351463;28;97858;-65
